Time;durP1;ratioP1;P1;durP2;ratioP2;P2;SDS_P1;SDS_P2;PMS_P1;PMS_P2;Temp;Humidity;BMP_temperature;BMP_pressure;BME280_temperature;BME280_humidity;BME280_pressure;Samples;Min_cycle;Max_cycle;Signal;HPM_P1;HPM_P2
2022/02/17 00:00:50;;;;;;;2.30;0.50;;;;;;;9.09;77.20;97887.83;106541;1273;22550;-57
2022/02/17 00:03:22;;;;;;;3.10;0.40;;;;;;;9.15;77.10;97889.71;106568;1273;24348;-58
2022/02/17 00:05:55;;;;;;;3.50;0.40;;;;;;;9.22;77.08;97887.04;106730;1273;26394;-60
2022/02/17 00:08:27;;;;;;;1.20;0.20;;;;;;;9.27;76.85;97882.77;106473;1273;22548;-57
2022/02/17 00:10:58;;;;;;;1.30;0.30;;;;;;;9.32;76.92;97880.58;106627;1273;22535;-59
2022/02/17 00:13:30;;;;;;;5.40;0.40;;;;;;;9.38;77.01;97880.54;107128;1273;25007;-61
2022/02/17 00:16:00;;;;;;;1.10;0.30;;;;;;;9.43;77.44;97876.89;107117;1273;25274;-56
2022/02/17 00:18:32;;;;;;;2.10;0.40;;;;;;;9.42;78.09;97860.95;106434;1273;22577;-62
2022/02/17 00:21:03;;;;;;;2.70;0.40;;;;;;;9.37;78.75;97837.67;106492;1273;22537;-63
2022/02/17 00:23:33;;;;;;;1.20;0.30;;;;;;;9.31;78.82;97816.21;106476;1273;22553;-62
2022/02/17 00:26:04;;;;;;;4.00;0.40;;;;;;;9.24;79.28;97797.68;106206;1273;383854;-62
2022/02/17 00:28:37;;;;;;;4.90;0.40;;;;;;;9.18;79.89;97811.07;106521;1273;22559;-62
2022/02/17 00:31:08;;;;;;;3.60;0.30;;;;;;;9.12;80.29;97801.34;106498;1273;23262;-61
2022/02/17 00:33:40;;;;;;;2.60;0.50;;;;;;;9.08;80.38;97785.27;106512;1273;24212;-60
2022/02/17 00:36:11;;;;;;;2.10;0.40;;;;;;;9.04;80.64;97781.67;106641;1273;24223;-64
2022/02/17 00:38:42;;;;;;;1.40;0.30;;;;;;;9.02;80.88;97766.23;106598;1273;25853;-59
2022/02/17 00:41:13;;;;;;;5.50;0.80;;;;;;;8.99;81.11;97763.32;106542;1273;24245;-56
2022/02/17 00:43:44;;;;;;;3.60;0.30;;;;;;;8.99;81.28;97761.61;106528;1273;22755;-58
2022/02/17 00:46:15;;;;;;;1.20;0.30;;;;;;;8.98;81.51;97740.63;106502;1273;25242;-58
2022/02/17 00:48:48;;;;;;;2.40;0.30;;;;;;;8.98;81.55;97734.87;106785;1273;23073;-60
2022/02/17 00:51:18;;;;;;;1.30;0.20;;;;;;;8.97;81.65;97733.20;106485;1273;22563;-58
2022/02/17 00:53:50;;;;;;;1.80;0.30;;;;;;;8.98;81.72;97727.38;106579;1273;22496;-55
2022/02/17 00:56:21;;;;;;;0.70;0.30;;;;;;;8.98;81.68;97725.71;106447;1273;22570;-57
2022/02/17 00:58:52;;;;;;;3.10;0.30;;;;;;;8.98;81.94;97725.23;106476;1273;25325;-59
2022/02/17 01:01:23;;;;;;;1.00;0.20;;;;;;;9.00;81.79;97724.70;106640;1273;22817;-58
2022/02/17 01:03:54;;;;;;;1.50;0.10;;;;;;;9.02;81.61;97728.23;106641;1273;25423;-55
2022/02/17 01:06:25;;;;;;;2.00;0.30;;;;;;;9.04;81.70;97735.29;106640;1273;22811;-58
2022/02/17 01:08:57;;;;;;;1.00;0.10;;;;;;;9.06;81.93;97720.48;106561;1273;22547;-59
2022/02/17 01:11:28;;;;;;;1.60;0.30;;;;;;;9.08;81.80;97710.32;106489;1273;22557;-57
2022/02/17 01:13:59;;;;;;;1.00;0.20;;;;;;;9.11;81.72;97701.42;106548;1273;23870;-59
2022/02/17 01:16:30;;;;;;;1.40;0.20;;;;;;;9.15;81.76;97690.23;106549;1273;25533;-58
2022/02/17 01:19:01;;;;;;;1.30;0.20;;;;;;;9.19;81.62;97676.39;106543;1273;24247;-58
2022/02/17 01:21:32;;;;;;;1.40;0.10;;;;;;;9.22;81.47;97665.16;106555;1273;22543;-58
2022/02/17 01:24:05;;;;;;;0.80;0.20;;;;;;;9.26;81.27;97649.54;106611;1273;22544;-58
2022/02/17 01:26:36;;;;;;;1.70;0.10;;;;;;;9.31;81.32;97644.00;106666;1273;26614;-58
2022/02/17 01:29:07;;;;;;;0.70;0.10;;;;;;;9.33;81.56;97635.50;106593;1273;22559;-57
2022/02/17 01:31:38;;;;;;;1.10;0.20;;;;;;;9.33;81.65;97616.54;106546;1273;22490;-60
2022/02/17 01:34:09;;;;;;;1.40;0.20;;;;;;;9.32;81.83;97607.16;106680;1273;24789;-61
2022/02/17 01:36:40;;;;;;;0.50;0.10;;;;;;;9.33;82.24;97594.05;106547;1273;25406;-61
2022/02/17 01:39:11;;;;;;;0.80;0.20;;;;;;;9.32;82.33;97583.08;106533;1273;25403;-61
2022/02/17 01:41:43;;;;;;;1.00;0.10;;;;;;;9.30;82.50;97569.38;106646;1273;22541;-58
2022/02/17 01:44:14;;;;;;;0.60;0.10;;;;;;;9.28;82.52;97553.84;106269;1274;26620;-59
2022/02/17 01:46:46;;;;;;;1.50;0.10;;;;;;;9.27;82.53;97546.02;106471;1274;22541;-56
2022/02/17 01:49:17;;;;;;;2.20;0.20;;;;;;;9.26;82.42;97536.58;106515;1273;24230;-58
2022/02/17 01:51:48;;;;;;;0.80;0.10;;;;;;;9.26;82.75;97524.94;106538;1273;22540;-56
2022/02/17 01:54:21;;;;;;;1.50;0.20;;;;;;;9.27;82.62;97510.59;106588;1273;22557;-58
2022/02/17 01:56:53;;;;;;;3.20;0.10;;;;;;;9.30;82.39;97497.37;106635;1273;24226;-60
2022/02/17 01:59:24;;;;;;;1.30;0.10;;;;;;;9.32;82.40;97496.16;106567;1273;22639;-60
2022/02/17 02:01:55;;;;;;;1.80;0.10;;;;;;;9.32;82.36;97483.95;106529;1273;22562;-57
2022/02/17 02:04:26;;;;;;;2.40;0.20;;;;;;;9.34;82.33;97479.71;106540;1273;24053;-59
2022/02/17 02:06:58;;;;;;;0.40;0.10;;;;;;;9.36;82.09;97478.66;106519;1272;22539;-57
2022/02/17 02:09:31;;;;;;;0.20;0.00;;;;;;;9.36;82.10;97470.02;106618;1272;25383;-57
2022/02/17 02:12:02;;;;;;;0.50;0.00;;;;;;;9.36;82.05;97467.38;106550;1273;22532;-58
2022/02/17 02:14:33;;;;;;;0.40;0.10;;;;;;;9.38;81.72;97470.92;106838;1273;25277;-56
2022/02/17 02:17:10;;;;;;;0.20;0.00;;;;;;;9.39;81.75;97462.01;106570;1273;26563;-60
2022/02/17 02:19:41;;;;;;;0.40;0.10;;;;;;;9.41;81.80;97449.55;106491;1273;25514;-59
2022/02/17 02:22:12;;;;;;;0.30;0.10;;;;;;;9.44;81.85;97446.88;106514;1273;23962;-58
2022/02/17 02:24:43;;;;;;;0.70;0.10;;;;;;;9.49;81.75;97439.77;106586;1273;25176;-61
2022/02/17 02:27:16;;;;;;;2.30;0.10;;;;;;;9.53;81.62;97436.63;106425;1273;26494;-58
2022/02/17 02:29:48;;;;;;;0.40;0.00;;;;;;;9.56;81.49;97431.65;106577;1273;22564;-56
2022/02/17 02:32:19;;;;;;;0.70;0.10;;;;;;;9.58;81.34;97419.98;106504;1273;24919;-59
2022/02/17 02:34:51;;;;;;;1.60;0.20;;;;;;;9.57;81.22;97408.45;106458;1273;24424;-58
2022/02/17 02:37:22;;;;;;;0.30;0.00;;;;;;;9.56;81.09;97402.27;106437;1273;22554;-59
2022/02/17 02:39:53;;;;;;;0.90;0.10;;;;;;;9.56;81.04;97390.54;106500;1274;22479;-59
2022/02/17 02:42:24;;;;;;;1.20;0.10;;;;;;;9.55;80.93;97386.41;106472;1273;22541;-58
2022/02/17 02:44:56;;;;;;;0.60;0.10;;;;;;;9.54;80.89;97384.46;106651;1273;22596;-61
2022/02/17 02:47:27;;;;;;;0.50;0.10;;;;;;;9.53;80.95;97383.83;107291;1273;24929;-62
2022/02/17 02:49:58;;;;;;;0.50;0.10;;;;;;;9.53;81.17;97370.97;106796;1273;22570;-58
2022/02/17 02:52:32;;;;;;;0.60;0.10;;;;;;;9.55;81.07;97361.14;106576;1273;22555;-59
2022/02/17 02:55:04;;;;;;;0.90;0.20;;;;;;;9.59;81.32;97365.17;106527;1273;23007;-59
2022/02/17 02:57:35;;;;;;;1.40;0.10;;;;;;;9.63;81.33;97353.77;106523;1272;22563;-59
2022/02/17 03:00:08;;;;;;;0.30;0.00;;;;;;;9.67;81.24;97342.13;106511;1273;22553;-61
2022/02/17 03:02:39;;;;;;;0.40;0.10;;;;;;;9.71;81.18;97345.58;106580;1273;23084;-61
2022/02/17 03:05:12;;;;;;;1.00;0.10;;;;;;;9.75;81.07;97341.64;106506;1273;25305;-59
2022/02/17 03:07:44;;;;;;;0.40;0.10;;;;;;;9.79;80.92;97341.89;106501;1273;22556;-58
2022/02/17 03:10:15;;;;;;;1.70;0.10;;;;;;;9.84;80.85;97346.69;106475;1274;22536;-60
2022/02/17 03:12:46;;;;;;;0.20;0.00;;;;;;;9.89;80.90;97342.30;106505;1274;22532;-59
2022/02/17 03:15:17;;;;;;;0.50;0.10;;;;;;;9.94;80.96;97346.45;106460;1274;22538;-58
2022/02/17 03:17:48;;;;;;;0.30;0.10;;;;;;;10.00;80.93;97332.49;106500;1273;24186;-59
2022/02/17 03:20:20;;;;;;;0.60;0.10;;;;;;;10.06;80.70;97317.90;106354;1275;22579;-61
2022/02/17 03:22:52;;;;;;;2.30;0.10;;;;;;;10.13;80.67;97319.39;106346;1273;22573;-56
2022/02/17 03:25:23;;;;;;;0.50;0.10;;;;;;;10.17;80.66;97313.89;106503;1273;22544;-58
2022/02/17 03:27:54;;;;;;;0.40;0.10;;;;;;;10.21;80.56;97320.23;106464;1273;25458;-58
2022/02/17 03:30:26;;;;;;;0.40;0.10;;;;;;;10.24;80.30;97330.04;106551;1274;22484;-59
2022/02/17 03:32:57;;;;;;;0.30;0.00;;;;;;;10.28;80.24;97322.92;106738;1273;22490;-58
2022/02/17 03:35:29;;;;;;;0.50;0.00;;;;;;;10.32;80.23;97322.20;106458;1274;23347;-59
2022/02/17 03:38:01;;;;;;;0.50;0.10;;;;;;;10.35;80.12;97317.17;106636;1274;22594;-60
2022/02/17 03:40:32;;;;;;;0.30;0.00;;;;;;;10.39;80.12;97312.51;106531;1274;25358;-60
2022/02/17 03:43:04;;;;;;;0.70;0.10;;;;;;;10.44;80.01;97315.59;106695;1274;25406;-59
2022/02/17 03:45:36;;;;;;;0.30;0.10;;;;;;;10.52;79.98;97319.03;106606;1273;23078;-59
2022/02/17 03:48:07;;;;;;;1.00;0.10;;;;;;;10.60;79.65;97317.55;106508;1273;25254;-61
2022/02/17 03:50:40;;;;;;;0.30;0.00;;;;;;;10.68;79.53;97315.61;106600;1273;22901;-59
2022/02/17 03:53:12;;;;;;;0.70;0.10;;;;;;;10.72;79.43;97315.20;106613;1272;24262;-61
2022/02/17 03:55:44;;;;;;;0.20;0.00;;;;;;;10.78;78.97;97312.84;106654;1274;22980;-60
2022/02/17 03:59:00;;;;;;;0.60;0.00;;;;;;;10.84;78.78;97291.04;106641;1273;22581;-61
2022/02/17 04:01:06;;;;;;;0.30;0.00;;;;;;;10.87;78.81;97293.91;106512;1274;22636;-59
2022/02/17 04:03:37;;;;;;;0.10;0.00;;;;;;;10.86;78.81;97285.77;106514;1274;22600;-59
2022/02/17 04:06:09;;;;;;;0.90;0.10;;;;;;;10.86;78.48;97277.91;106554;1273;24006;-61
2022/02/17 04:08:41;;;;;;;0.20;0.00;;;;;;;10.86;78.71;97276.79;106544;1274;24303;-58
2022/02/17 04:11:13;;;;;;;3.00;0.20;;;;;;;10.87;78.60;97273.93;106659;1273;24274;-59
2022/02/17 04:13:44;;;;;;;0.30;0.00;;;;;;;10.87;78.61;97263.77;106633;1274;25274;-58
2022/02/17 04:16:17;;;;;;;1.20;0.10;;;;;;;10.87;78.56;97294.66;106535;1274;22563;-56
2022/02/17 04:21:00;;;;;;;5.30;0.20;;;;;;;10.04;73.56;97565.71;103347;1312;545433;-79
2022/02/17 04:23:31;;;;;;;4.20;0.50;;;;;;;8.92;75.69;97543.66;106098;1280;25498;-79
2022/02/17 04:26:02;;;;;;;10.00;0.90;;;;;;;8.36;77.15;97527.27;106204;1277;25384;-78
2022/02/17 04:28:33;;;;;;;4.40;0.40;;;;;;;8.01;78.59;97534.37;106149;1277;22586;-76
2022/02/17 04:31:04;;;;;;;3.20;0.50;;;;;;;7.75;79.77;97531.41;106075;1278;22630;-77
2022/02/17 04:33:35;;;;;;;2.10;0.20;;;;;;;7.55;80.51;97513.09;102112;1275;5410727;-79
2022/02/17 04:36:07;;;;;;;1.10;0.20;;;;;;;7.35;80.97;97509.20;106147;1274;22547;-79
2022/02/17 04:38:38;;;;;;;4.40;0.20;;;;;;;7.18;81.85;97528.81;106160;1272;22544;-79
2022/02/17 04:43:58;;;;;;;1.90;0.30;;;;;;;6.95;82.14;97470.11;106195;1275;25264;-78
2022/02/17 04:46:28;;;;;;;2.10;0.10;;;;;;;6.88;82.32;97479.68;106361;1274;25339;-77
2022/02/17 04:48:59;;;;;;;1.10;0.10;;;;;;;6.82;82.21;97474.33;106487;1271;24306;-78
2022/02/17 04:51:30;;;;;;;4.40;0.20;;;;;;;6.79;82.08;97469.48;106610;1271;25263;-78
2022/02/17 04:54:01;;;;;;;4.10;0.20;;;;;;;6.78;82.39;97479.98;106418;1271;24359;-78
2022/02/17 04:56:32;;;;;;;4.80;0.10;;;;;;;6.77;82.29;97498.69;106268;1271;22566;-77
2022/02/17 04:59:03;;;;;;;4.20;0.20;;;;;;;6.77;82.40;97487.86;106285;1271;23394;-79
2022/02/17 05:01:34;;;;;;;5.50;0.40;;;;;;;6.78;82.50;97497.07;106491;1271;25556;-78
2022/02/17 05:04:05;;;;;;;5.90;0.70;;;;;;;6.80;82.62;97504.11;106490;1271;26004;-79
2022/02/17 05:06:37;;;;;;;2.10;0.30;;;;;;;6.82;82.72;97501.77;106421;1271;23355;-80
2022/02/17 05:09:08;;;;;;;11.00;0.40;;;;;;;6.83;82.79;97489.41;106555;1271;23562;-82
2022/02/17 05:11:39;;;;;;;4.40;0.40;;;;;;;6.85;82.83;97478.14;106614;1271;22694;-79
2022/02/17 05:14:10;;;;;;;2.80;0.30;;;;;;;6.85;82.92;97473.70;106614;1271;24416;-78
2022/02/17 05:16:42;;;;;;;3.20;0.40;;;;;;;6.86;82.98;97479.59;106676;1271;24285;-79
2022/02/17 05:19:12;;;;;;;3.10;0.40;;;;;;;6.86;83.23;97482.11;106685;1271;23336;-79
2022/02/17 05:21:45;;;;;;;4.60;0.40;;;;;;;6.85;83.42;97483.83;106655;1271;23873;-79
2022/02/17 05:24:16;;;;;;;4.30;0.30;;;;;;;6.85;83.53;97492.37;106616;1271;22557;-80
2022/02/17 05:26:47;;;;;;;4.90;0.70;;;;;;;6.85;83.54;97488.63;106593;1271;22662;-79
2022/02/17 05:29:19;;;;;;;6.00;0.40;;;;;;;6.86;83.68;97490.23;106591;1271;22748;-77
2022/02/17 05:31:50;;;;;;;8.20;0.40;;;;;;;6.85;83.96;97494.52;106533;1271;22550;-78
2022/02/17 05:34:22;;;;;;;3.30;0.40;;;;;;;6.86;84.33;97512.02;106826;1271;22544;-79
2022/02/17 05:36:53;;;;;;;6.60;0.40;;;;;;;6.85;84.45;97523.20;106789;1271;23065;-80
2022/02/17 05:39:25;;;;;;;4.10;0.50;;;;;;;6.89;84.68;97529.77;106686;1271;22543;-79
2022/02/17 05:41:56;;;;;;;3.30;0.40;;;;;;;6.92;84.91;97538.31;106939;1271;22596;-79
2022/02/17 05:44:27;;;;;;;3.10;0.30;;;;;;;6.96;84.97;97548.56;106795;1271;22543;-79
2022/02/17 05:46:58;;;;;;;4.40;0.40;;;;;;;6.98;85.15;97542.55;106836;1271;22561;-78
2022/02/17 05:49:29;;;;;;;8.50;0.60;;;;;;;6.98;84.97;97539.52;106603;1271;22895;-79
2022/02/17 05:52:00;;;;;;;5.70;0.40;;;;;;;6.99;84.82;97518.59;106776;1271;22545;-78
2022/02/17 05:54:31;;;;;;;3.70;0.40;;;;;;;7.01;84.66;97499.66;106513;1271;25280;-77
2022/02/17 05:57:02;;;;;;;1.80;0.20;;;;;;;7.01;84.72;97483.92;106262;1271;24293;-79
2022/02/17 05:59:34;;;;;;;5.30;0.30;;;;;;;7.00;85.01;97487.50;106415;1271;22599;-79
2022/02/17 06:02:06;;;;;;;5.70;0.30;;;;;;;7.00;85.03;97495.73;106676;1271;23260;-80
2022/02/17 06:04:37;;;;;;;3.00;0.40;;;;;;;6.98;85.29;97506.54;106990;1271;22602;-81
2022/02/17 06:07:08;;;;;;;2.40;0.30;;;;;;;6.97;85.48;97504.58;107424;1271;23297;-80
2022/02/17 06:09:39;;;;;;;1.10;0.20;;;;;;;6.96;85.49;97479.04;107820;1271;25348;-80
2022/02/17 06:12:10;;;;;;;2.00;0.10;;;;;;;6.94;85.36;97470.33;107885;1271;22573;-83
2022/02/17 06:14:41;;;;;;;2.60;0.20;;;;;;;6.94;85.65;97466.09;107671;1271;24180;-80
2022/02/17 06:17:13;;;;;;;3.80;0.20;;;;;;;6.92;85.27;97474.54;106963;1270;22630;-79
2022/02/17 06:19:44;;;;;;;1.10;0.20;;;;;;;6.94;85.42;97499.38;107429;1271;22541;-83
2022/02/17 06:22:16;;;;;;;1.10;0.10;;;;;;;6.96;85.57;97514.44;107038;1271;22536;-79
2022/02/17 06:24:47;;;;;;;3.10;0.20;;;;;;;6.97;85.64;97521.02;107447;1271;22544;-82
2022/02/17 06:27:20;;;;;;;2.20;0.20;;;;;;;7.00;85.65;97539.25;107222;1271;23244;-82
2022/02/17 06:29:52;;;;;;;2.90;0.40;;;;;;;7.03;85.99;97546.44;107614;1271;22577;-81
2022/02/17 06:32:23;;;;;;;2.70;0.20;;;;;;;7.07;85.97;97550.23;107686;1269;22504;-81
2022/02/17 06:34:55;;;;;;;1.50;0.20;;;;;;;7.09;86.07;97541.77;107605;1271;22768;-81
2022/02/17 06:37:26;;;;;;;4.40;0.40;;;;;;;7.11;85.98;97546.64;107523;1271;22703;-80
2022/02/17 06:39:57;;;;;;;2.30;0.10;;;;;;;7.14;85.90;97556.70;107721;1271;22624;-80
2022/02/17 06:42:28;;;;;;;2.00;0.10;;;;;;;7.14;85.67;97559.73;107599;1271;23091;-80
2022/02/17 06:44:59;;;;;;;4.80;0.20;;;;;;;7.14;85.69;97568.26;107650;1270;22559;-80
2022/02/17 06:47:30;;;;;;;1.20;0.20;;;;;;;7.12;85.57;97584.05;107758;1270;25988;-82
2022/02/17 06:50:01;;;;;;;3.40;0.20;;;;;;;7.09;85.83;97597.67;107709;1270;22565;-82
2022/02/17 06:52:32;;;;;;;2.90;0.30;;;;;;;7.05;85.64;97592.80;107931;1271;26399;-82
2022/02/17 06:55:04;;;;;;;2.50;0.40;;;;;;;7.01;85.25;97503.23;107858;1270;23955;-81
2022/02/17 06:57:35;;;;;;;2.30;0.30;;;;;;;6.95;84.90;97596.73;107761;1271;25266;-82
2022/02/17 07:00:09;;;;;;;6.10;0.50;;;;;;;6.91;84.79;97624.10;107700;1271;24282;-82
2022/02/17 07:02:39;;;;;;;2.10;0.20;;;;;;;6.86;84.72;97608.11;107741;1270;22558;-81
2022/02/17 07:05:11;;;;;;;1.90;0.20;;;;;;;6.82;84.79;97602.51;107725;1271;22543;-80
2022/02/17 07:07:42;;;;;;;2.40;0.20;;;;;;;6.78;84.58;97591.64;107787;1271;22593;-81
2022/02/17 07:10:13;;;;;;;2.90;0.40;;;;;;;6.75;84.80;97599.63;107686;1270;22517;-81
2022/02/17 07:12:44;;;;;;;2.50;0.10;;;;;;;6.72;84.71;97600.87;107561;1270;25383;-81
2022/02/17 07:15:15;;;;;;;5.30;0.40;;;;;;;6.71;84.71;97605.71;107769;1268;24411;-81
2022/02/17 07:17:46;;;;;;;3.80;0.40;;;;;;;6.71;84.58;97623.41;107824;1268;22563;-80
2022/02/17 07:20:17;;;;;;;3.00;0.40;;;;;;;6.71;84.60;97626.08;107783;1268;25739;-82
2022/02/17 07:22:47;;;;;;;3.40;0.40;;;;;;;6.71;84.61;97628.05;107807;1268;24234;-81
2022/02/17 07:25:18;;;;;;;2.20;0.30;;;;;;;6.72;84.63;97632.02;107830;1268;22556;-81
2022/02/17 07:27:50;;;;;;;3.20;0.40;;;;;;;6.75;84.62;97618.59;107923;1268;22539;-81
2022/02/17 07:30:21;;;;;;;3.30;0.40;;;;;;;6.76;84.71;97577.14;107799;1268;22682;-80
2022/02/17 07:32:53;;;;;;;1.90;0.30;;;;;;;6.78;84.38;97578.13;107851;1268;22717;-81
2022/02/17 07:35:24;;;;;;;5.10;0.40;;;;;;;6.82;84.21;97587.57;107699;1268;22582;-80
2022/02/17 07:37:55;;;;;;;2.90;0.30;;;;;;;6.85;83.95;97589.77;107807;1268;22521;-80
2022/02/17 07:40:26;;;;;;;1.30;0.30;;;;;;;6.89;83.70;97579.34;107730;1268;24168;-81
2022/02/17 07:42:57;;;;;;;2.10;0.30;;;;;;;6.92;83.62;97581.08;107934;1268;22569;-80
2022/02/17 07:45:28;;;;;;;3.10;0.40;;;;;;;6.97;83.20;97580.54;107909;1268;22627;-80
2022/02/17 07:48:00;;;;;;;4.00;0.40;;;;;;;7.03;83.17;97574.33;107742;1268;25389;-79
2022/02/17 07:50:32;;;;;;;3.30;0.30;;;;;;;7.09;82.94;97572.98;107951;1267;22484;-80
2022/02/17 07:53:03;;;;;;;2.20;0.20;;;;;;;7.15;82.66;97577.27;107825;1268;25914;-80
2022/02/17 07:55:34;;;;;;;4.80;0.50;;;;;;;7.22;82.45;97586.09;107363;1268;22703;-80
2022/02/17 07:58:10;;;;;;;2.20;0.20;;;;;;;7.28;82.28;97592.38;107334;1268;26197;-81
2022/02/17 08:00:41;;;;;;;5.50;0.30;;;;;;;7.32;81.76;97588.84;107352;1268;23701;-80
2022/02/17 08:03:13;;;;;;;4.40;0.40;;;;;;;7.37;81.43;97604.86;107769;1268;22561;-80
2022/02/17 08:05:45;;;;;;;3.30;0.30;;;;;;;7.43;81.06;97608.98;107772;1268;22612;-80
2022/02/17 08:08:16;;;;;;;4.00;0.40;;;;;;;7.48;80.97;97606.55;107185;1268;25261;-80
2022/02/17 08:10:48;;;;;;;2.30;0.30;;;;;;;7.51;80.53;97627.20;107403;1268;26004;-80
2022/02/17 08:13:21;;;;;;;2.40;0.20;;;;;;;7.55;80.18;97640.99;107426;1268;22657;-80
2022/02/17 08:15:54;;;;;;;3.70;0.30;;;;;;;7.61;79.79;97636.64;107355;1268;22564;-80
2022/02/17 08:18:25;;;;;;;4.40;0.60;;;;;;;7.69;78.95;97633.26;107321;1268;24904;-81
2022/02/17 08:20:56;;;;;;;4.60;0.50;;;;;;;7.79;79.36;97652.40;107282;1268;24279;-80
2022/02/17 08:23:30;;;;;;;5.10;0.30;;;;;;;7.86;78.43;97652.30;107842;1268;22574;-81
2022/02/17 08:26:01;;;;;;;7.30;0.70;;;;;;;7.96;77.34;97661.79;107802;1267;22694;-80
2022/02/17 08:28:33;;;;;;;6.80;0.30;;;;;;;8.04;77.28;97663.50;107429;1268;25659;-82
2022/02/17 08:31:05;;;;;;;3.10;0.30;;;;;;;8.11;76.61;97672.52;107806;1267;22554;-81
2022/02/17 08:33:37;;;;;;;6.90;0.50;;;;;;;8.18;77.04;97671.10;107870;1268;24212;-81
2022/02/17 08:36:08;;;;;;;3.10;0.40;;;;;;;8.26;75.96;97669.21;107819;1268;24455;-80
2022/02/17 08:38:39;;;;;;;4.60;0.50;;;;;;;8.31;75.46;97666.23;107711;1268;24232;-80
2022/02/17 08:41:10;;;;;;;6.50;0.50;;;;;;;8.32;75.39;97671.71;107799;1267;22751;-80
2022/02/17 08:43:42;;;;;;;2.70;0.30;;;;;;;8.35;74.68;97679.77;107854;1268;24273;-80
2022/02/17 08:46:14;;;;;;;3.60;0.50;;;;;;;8.38;75.15;97672.19;107708;1268;27450;-80
2022/02/17 08:48:45;;;;;;;5.60;0.40;;;;;;;8.39;74.45;97672.88;107736;1268;22702;-81
2022/02/17 08:51:18;;;;;;;5.30;0.50;;;;;;;8.41;74.54;97668.36;107828;1268;22549;-80
2022/02/17 08:53:50;;;;;;;3.10;0.40;;;;;;;8.43;74.77;97666.40;107707;1268;22541;-80
2022/02/17 08:56:21;;;;;;;7.80;0.90;;;;;;;8.48;75.00;97648.75;107837;1267;25312;-80
2022/02/17 08:58:53;;;;;;;4.50;0.70;;;;;;;8.54;75.32;97652.91;107933;1268;22688;-80
2022/02/17 09:01:24;;;;;;;9.70;0.60;;;;;;;8.60;74.26;97640.64;107743;1268;23007;-80
2022/02/17 09:03:55;;;;;;;9.10;0.60;;;;;;;8.65;74.70;97644.66;107809;1268;22553;-80
2022/02/17 09:06:26;;;;;;;6.20;0.60;;;;;;;8.70;73.83;97661.21;107845;1267;22550;-80
2022/02/17 09:08:57;;;;;;;6.80;0.60;;;;;;;8.73;72.35;97667.80;107777;1268;22535;-80
2022/02/17 09:11:28;;;;;;;6.10;1.20;;;;;;;8.76;72.73;97652.27;107760;1268;22543;-80
2022/02/17 09:14:00;;;;;;;5.30;0.70;;;;;;;8.82;71.73;97640.50;107720;1268;25378;-80
2022/02/17 09:16:31;;;;;;;5.30;0.40;;;;;;;8.88;71.22;97639.60;107748;1268;22531;-80
2022/02/17 09:19:06;;;;;;;9.40;0.70;;;;;;;8.94;71.72;97643.65;107717;1268;23384;-80
2022/02/17 09:21:38;;;;;;;4.70;0.50;;;;;;;9.00;70.69;97643.61;107469;1268;22553;-80
2022/02/17 09:24:10;;;;;;;6.40;0.90;;;;;;;9.06;70.31;97644.56;107425;1267;22608;-80
2022/02/17 09:26:45;;;;;;;2.10;0.40;;;;;;;9.13;69.99;97640.81;107371;1268;22593;-81
2022/02/17 09:29:16;;;;;;;4.60;0.70;;;;;;;9.19;69.52;97639.39;107872;1268;23381;-81
2022/02/17 09:31:47;;;;;;;5.50;0.70;;;;;;;9.25;68.88;97653.86;107773;1267;22558;-80
2022/02/17 09:34:19;;;;;;;2.90;0.40;;;;;;;9.30;69.46;97649.00;107696;1268;22604;-81
2022/02/17 09:36:50;;;;;;;7.60;0.70;;;;;;;9.37;68.48;97658.16;107902;1267;26405;-81
2022/02/17 09:39:21;;;;;;;4.00;0.40;;;;;;;9.40;67.95;97646.05;107723;1268;22523;-81
2022/02/17 09:41:52;;;;;;;5.70;0.40;;;;;;;9.39;67.09;97646.33;107677;1268;23979;-81
2022/02/17 09:44:26;;;;;;;6.90;0.60;;;;;;;9.36;66.67;97644.42;107867;1268;22570;-81
2022/02/17 09:46:58;;;;;;;6.30;0.70;;;;;;;9.36;65.93;97642.05;107668;1267;24171;-80
2022/02/17 09:49:31;;;;;;;4.80;0.30;;;;;;;9.40;65.17;97638.62;107656;1268;22535;-81
2022/02/17 09:52:02;;;;;;;3.50;0.60;;;;;;;9.45;64.78;97646.71;107785;1268;22583;-81
2022/02/17 09:54:34;;;;;;;3.20;0.40;;;;;;;9.50;63.71;97648.09;107508;1268;22596;-80
2022/02/17 09:57:05;;;;;;;7.00;0.60;;;;;;;9.54;63.19;97659.71;107739;1268;22485;-81
2022/02/17 09:59:37;;;;;;;4.50;0.40;;;;;;;9.59;63.09;97658.27;107786;1268;22573;-80
2022/02/17 10:02:11;;;;;;;7.20;0.50;;;;;;;9.63;62.02;97667.83;107692;1267;22480;-80
2022/02/17 10:04:42;;;;;;;3.00;0.40;;;;;;;9.66;61.60;97664.46;107718;1268;22547;-80
2022/02/17 10:07:13;;;;;;;4.60;0.30;;;;;;;9.69;61.24;97670.22;107874;1267;22551;-80
2022/02/17 10:09:47;;;;;;;4.20;0.40;;;;;;;9.73;61.26;97676.00;107752;1267;22555;-80
2022/02/17 10:12:18;;;;;;;4.60;0.40;;;;;;;9.77;61.07;97668.77;107688;1268;24040;-80
2022/02/17 10:14:59;;;;;;;7.50;0.50;;;;;;;9.81;59.02;97683.55;107727;1268;25374;-80
2022/02/17 10:17:30;;;;;;;4.80;0.40;;;;;;;9.83;58.85;97678.44;107752;1267;24351;-80
2022/02/17 10:20:01;;;;;;;2.90;0.30;;;;;;;9.84;58.31;97693.35;107705;1267;25394;-80
2022/02/17 10:22:34;;;;;;;4.50;0.30;;;;;;;9.87;59.03;97686.67;107734;1268;24748;-80
2022/02/17 10:25:05;;;;;;;2.30;0.20;;;;;;;9.89;58.53;97678.27;107408;1268;22663;-80
2022/02/17 10:27:38;;;;;;;4.10;0.40;;;;;;;9.91;57.29;97678.11;107321;1268;25880;-80
2022/02/17 10:30:13;;;;;;;2.60;0.30;;;;;;;9.94;58.35;97679.34;107505;1267;24287;-81
2022/02/17 10:32:56;;;;;;;3.40;0.30;;;;;;;9.95;57.54;97690.62;107445;1267;23118;-80
2022/02/17 10:35:28;;;;;;;5.30;0.40;;;;;;;9.98;57.67;97691.77;107673;1268;23828;-80
2022/02/17 10:38:01;;;;;;;2.70;0.30;;;;;;;9.99;58.11;97706.85;107366;1268;22675;-80
2022/02/17 10:40:33;;;;;;;4.20;0.30;;;;;;;10.00;56.68;97725.95;107376;1268;22697;-80
2022/02/17 10:43:07;;;;;;;2.50;0.30;;;;;;;9.97;57.37;97713.09;107846;1268;22572;-79
2022/02/17 10:45:40;;;;;;;2.60;0.30;;;;;;;9.96;56.43;97721.67;107819;1268;22711;-80
2022/02/17 10:48:16;;;;;;;3.70;0.30;;;;;;;9.96;55.40;97729.20;107767;1265;22571;-80
2022/02/17 10:51:02;;;;;;;7.00;0.40;;;;;;;9.95;56.17;97728.72;107964;1268;22554;-80
2022/02/17 10:53:36;;;;;;;1.50;0.10;;;;;;;9.96;56.09;97727.13;107770;1268;22570;-80
2022/02/17 10:56:09;;;;;;;2.60;0.20;;;;;;;9.97;56.50;97726.36;107727;1267;22552;-80
2022/02/17 10:58:46;;;;;;;5.00;0.30;;;;;;;9.98;56.06;97736.93;107737;1268;22584;-81
2022/02/17 11:01:19;;;;;;;2.90;0.30;;;;;;;10.01;56.47;97739.23;107832;1268;24053;-80
2022/02/17 11:03:51;;;;;;;3.60;0.30;;;;;;;10.05;56.09;97734.30;107768;1268;25407;-79
2022/02/17 11:06:22;;;;;;;6.40;0.30;;;;;;;10.06;55.23;97748.83;107287;1268;22582;-80
2022/02/17 11:08:54;;;;;;;5.80;0.50;;;;;;;10.08;54.08;97745.05;107340;1267;22539;-80
2022/02/17 11:11:25;;;;;;;3.90;0.40;;;;;;;10.09;54.59;97753.29;107229;1268;25306;-80
2022/02/17 11:13:56;;;;;;;5.60;0.50;;;;;;;10.10;53.56;97777.09;107238;1268;22481;-80
2022/02/17 11:16:28;;;;;;;5.90;1.20;;;;;;;10.13;53.43;97771.93;107234;1268;23279;-80
2022/02/17 11:18:59;;;;;;;3.10;0.30;;;;;;;10.17;53.93;97774.51;107300;1267;26650;-80
2022/02/17 11:21:31;;;;;;;6.70;0.30;;;;;;;10.20;54.16;97774.24;107284;1268;24392;-79
2022/02/17 11:24:03;;;;;;;4.40;0.60;;;;;;;10.21;53.35;97790.04;107290;1268;22614;-80
2022/02/17 11:26:35;;;;;;;4.00;0.40;;;;;;;10.21;53.61;97789.93;107307;1268;24341;-80
2022/02/17 14:43:54;;;;;;;4.90;0.60;;;;;;;9.18;51.39;98117.69;103470;1300;25357;-59
2022/02/17 14:46:22;;;;;;;6.50;0.90;;;;;;;9.18;51.70;98129.54;105330;1277;22557;-59
2022/02/17 14:48:50;;;;;;;9.20;1.10;;;;;;;9.16;52.91;98138.20;105392;1277;25268;-61
2022/02/17 14:51:19;;;;;;;8.50;0.50;;;;;;;9.08;54.07;98152.45;105608;1277;22553;-59
2022/02/17 14:53:47;;;;;;;5.50;0.60;;;;;;;8.96;54.68;98151.27;105306;1277;24543;-59
2022/02/17 14:56:18;;;;;;;4.90;0.50;;;;;;;8.84;55.07;98160.58;105325;1277;25246;-60
2022/02/17 14:58:46;;;;;;;4.70;0.60;;;;;;;8.76;55.00;98154.63;106035;1277;22554;-59
2022/02/17 15:01:15;;;;;;;6.70;0.70;;;;;;;8.71;54.92;98165.98;105585;1277;24395;-60
2022/02/17 15:03:43;;;;;;;7.40;0.70;;;;;;;8.66;55.15;98162.95;105338;1277;25536;-59
2022/02/17 15:06:12;;;;;;;6.10;1.10;;;;;;;8.64;55.17;98175.05;105749;1277;24386;-60
2022/02/17 15:08:41;;;;;;;3.80;0.70;;;;;;;8.61;54.61;98187.81;106162;1277;22541;-61
2022/02/17 15:11:09;;;;;;;6.40;0.60;;;;;;;8.60;54.26;98191.14;106038;1277;24262;-61